sensor_id;sensor_type;location;lat;lon;timestamp;pressure;altitude;pressure_sealevel;temperature;humidity
45941;BME280;31858;46.008;8.978;2023-07-02T00:05:17;93961.28;;;19.12;100.00
45941;BME280;31858;46.008;8.978;2023-07-02T00:15:19;93956.59;;;18.90;100.00
45941;BME280;31858;46.008;8.978;2023-07-02T00:25:22;93967.66;;;18.83;100.00
45941;BME280;31858;46.008;8.978;2023-07-02T00:35:23;93979.41;;;18.89;100.00
45941;BME280;31858;46.008;8.978;2023-07-02T00:45:26;93987.66;;;18.73;100.00
45941;BME280;31858;46.008;8.978;2023-07-02T00:55:28;93989.72;;;18.69;100.00
45941;BME280;31858;46.008;8.978;2023-07-02T01:05:31;93986.34;;;18.78;100.00
45941;BME280;31858;46.008;8.978;2023-07-02T01:15:36;93989.94;;;18.49;100.00
45941;BME280;31858;46.008;8.978;2023-07-02T01:25:39;93981.53;;;18.47;100.00
45941;BME280;31858;46.008;8.978;2023-07-02T01:35:41;93974.19;;;18.61;100.00
45941;BME280;31858;46.008;8.978;2023-07-02T01:45:44;93981.22;;;18.45;100.00
45941;BME280;31858;46.008;8.978;2023-07-02T01:55:46;93980.78;;;18.34;100.00
45941;BME280;31858;46.008;8.978;2023-07-02T02:05:49;93976.25;;;18.44;100.00
45941;BME280;31858;46.008;8.978;2023-07-02T02:15:51;93976.16;;;18.35;100.00
45941;BME280;31858;46.008;8.978;2023-07-02T02:25:54;93988.47;;;18.23;100.00
45941;BME280;31858;46.008;8.978;2023-07-02T02:35:55;93981.25;;;18.20;100.00
45941;BME280;31858;46.008;8.978;2023-07-02T02:45:58;93981.66;;;18.31;100.00
45941;BME280;31858;46.008;8.978;2023-07-02T02:56:00;93978.75;;;18.25;100.00
45941;BME280;31858;46.008;8.978;2023-07-02T03:06:02;93992.59;;;18.02;100.00
45941;BME280;31858;46.008;8.978;2023-07-02T03:16:04;93981.59;;;18.09;100.00
45941;BME280;31858;46.008;8.978;2023-07-02T03:26:07;93986.34;;;18.05;100.00
45941;BME280;31858;46.008;8.978;2023-07-02T03:36:09;93987.22;;;18.02;100.00
45941;BME280;31858;46.008;8.978;2023-07-02T03:46:12;93996.38;;;18.05;100.00
45941;BME280;31858;46.008;8.978;2023-07-02T03:56:14;94001.31;;;17.93;100.00
45941;BME280;31858;46.008;8.978;2023-07-02T04:06:17;94020.84;;;17.85;100.00
45941;BME280;31858;46.008;8.978;2023-07-02T04:16:19;94011.25;;;17.97;100.00
45941;BME280;31858;46.008;8.978;2023-07-02T04:26:22;94019.00;;;17.95;100.00
45941;BME280;31858;46.008;8.978;2023-07-02T04:36:26;94021.47;;;17.89;100.00
45941;BME280;31858;46.008;8.978;2023-07-02T04:46:30;94031.50;;;17.88;100.00
45941;BME280;31858;46.008;8.978;2023-07-02T04:56:31;94022.91;;;18.06;100.00
45941;BME280;31858;46.008;8.978;2023-07-02T05:06:34;94018.69;;;17.92;100.00
45941;BME280;31858;46.008;8.978;2023-07-02T05:16:36;94028.50;;;17.86;100.00
45941;BME280;31858;46.008;8.978;2023-07-02T05:26:39;94024.94;;;18.02;100.00
45941;BME280;31858;46.008;8.978;2023-07-02T05:36:41;94030.22;;;17.93;100.00
45941;BME280;31858;46.008;8.978;2023-07-02T05:46:44;94032.03;;;17.83;100.00
45941;BME280;31858;46.008;8.978;2023-07-02T05:56:46;94040.78;;;18.00;100.00
45941;BME280;31858;46.008;8.978;2023-07-02T06:06:49;94042.19;;;18.17;100.00
45941;BME280;31858;46.008;8.978;2023-07-02T06:16:50;94051.03;;;18.31;100.00
45941;BME280;31858;46.008;8.978;2023-07-02T06:26:53;94060.63;;;18.44;100.00
45941;BME280;31858;46.008;8.978;2023-07-02T06:36:55;94069.91;;;18.56;100.00
45941;BME280;31858;46.008;8.978;2023-07-02T06:46:58;94070.22;;;18.58;100.00
45941;BME280;31858;46.008;8.978;2023-07-02T06:57:00;94074.03;;;18.61;100.00
45941;BME280;31858;46.008;8.978;2023-07-02T07:07:03;94070.78;;;18.66;100.00
45941;BME280;31858;46.008;8.978;2023-07-02T07:17:05;94082.09;;;18.73;100.00
45941;BME280;31858;46.008;8.978;2023-07-02T07:27:08;94084.78;;;18.86;100.00
45941;BME280;31858;46.008;8.978;2023-07-02T07:37:09;94081.19;;;19.02;100.00
45941;BME280;31858;46.008;8.978;2023-07-02T07:47:12;94081.16;;;19.14;100.00
45941;BME280;31858;46.008;8.978;2023-07-02T07:57:14;94081.88;;;19.28;100.00
45941;BME280;31858;46.008;8.978;2023-07-02T08:07:17;94073.09;;;19.36;100.00
45941;BME280;31858;46.008;8.978;2023-07-02T08:17:19;94081.44;;;19.51;100.00
45941;BME280;31858;46.008;8.978;2023-07-02T08:27:22;94085.22;;;19.53;100.00
45941;BME280;31858;46.008;8.978;2023-07-02T08:37:23;94082.72;;;19.59;100.00
45941;BME280;31858;46.008;8.978;2023-07-02T08:47:26;94074.41;;;19.75;100.00
45941;BME280;31858;46.008;8.978;2023-07-02T08:57:28;94083.09;;;19.92;100.00
45941;BME280;31858;46.008;8.978;2023-07-02T09:07:31;94092.00;;;20.02;100.00
45941;BME280;31858;46.008;8.978;2023-07-02T09:17:34;94077.06;;;20.19;100.00
45941;BME280;31858;46.008;8.978;2023-07-02T09:27:39;94069.47;;;20.36;100.00
45941;BME280;31858;46.008;8.978;2023-07-02T09:37:42;94079.53;;;20.57;100.00
45941;BME280;31858;46.008;8.978;2023-07-02T09:47:49;94075.38;;;20.74;100.00
45941;BME280;31858;46.008;8.978;2023-07-02T09:57:51;94082.03;;;21.19;100.00
45941;BME280;31858;46.008;8.978;2023-07-02T10:07:55;94081.78;;;21.35;100.00
45941;BME280;31858;46.008;8.978;2023-07-02T10:17:59;94070.03;;;21.57;100.00
45941;BME280;31858;46.008;8.978;2023-07-02T10:28:13;94065.94;;;21.89;100.00
45941;BME280;31858;46.008;8.978;2023-07-02T10:38:18;94061.19;;;22.17;100.00
45941;BME280;31858;46.008;8.978;2023-07-02T10:48:22;94057.19;;;22.45;100.00
45941;BME280;31858;46.008;8.978;2023-07-02T10:58:24;94045.78;;;22.65;100.00
45941;BME280;31858;46.008;8.978;2023-07-02T11:08:35;94034.31;;;22.94;100.00
45941;BME280;31858;46.008;8.978;2023-07-02T11:18:37;94033.13;;;23.33;100.00
45941;BME280;31858;46.008;8.978;2023-07-02T11:28:49;94029.25;;;23.64;100.00
45941;BME280;31858;46.008;8.978;2023-07-02T11:38:52;94033.38;;;23.74;100.00
45941;BME280;31858;46.008;8.978;2023-07-02T11:48:55;94032.34;;;23.71;100.00
45941;BME280;31858;46.008;8.978;2023-07-02T11:58:56;94038.19;;;23.79;100.00
45941;BME280;31858;46.008;8.978;2023-07-02T12:09:00;94038.28;;;23.85;100.00
45941;BME280;31858;46.008;8.978;2023-07-02T12:19:02;94032.44;;;24.51;100.00
45941;BME280;31858;46.008;8.978;2023-07-02T12:29:05;94020.38;;;24.57;100.00
45941;BME280;31858;46.008;8.978;2023-07-02T12:39:07;94024.56;;;24.38;100.00
45941;BME280;31858;46.008;8.978;2023-07-02T12:49:10;94026.63;;;24.43;100.00
45941;BME280;31858;46.008;8.978;2023-07-02T12:59:11;94030.38;;;24.46;100.00
45941;BME280;31858;46.008;8.978;2023-07-02T13:09:14;94025.25;;;24.68;100.00
45941;BME280;31858;46.008;8.978;2023-07-02T13:19:16;94034.53;;;24.96;100.00
45941;BME280;31858;46.008;8.978;2023-07-02T13:29:19;94031.38;;;24.83;100.00
45941;BME280;31858;46.008;8.978;2023-07-02T13:39:20;94032.09;;;24.98;100.00
45941;BME280;31858;46.008;8.978;2023-07-02T13:49:23;94033.13;;;25.21;100.00
45941;BME280;31858;46.008;8.978;2023-07-02T13:59:26;94035.53;;;24.79;100.00
45941;BME280;31858;46.008;8.978;2023-07-02T14:09:28;94026.78;;;24.54;100.00
45941;BME280;31858;46.008;8.978;2023-07-02T14:19:31;94025.28;;;24.53;100.00
45941;BME280;31858;46.008;8.978;2023-07-02T14:29:33;94029.25;;;24.93;100.00
45941;BME280;31858;46.008;8.978;2023-07-02T14:39:36;94022.28;;;24.51;100.00
45941;BME280;31858;46.008;8.978;2023-07-02T14:49:38;94017.13;;;24.73;100.00
45941;BME280;31858;46.008;8.978;2023-07-02T14:59:41;94024.50;;;24.67;100.00
45941;BME280;31858;46.008;8.978;2023-07-02T15:09:42;94021.53;;;24.51;100.00
45941;BME280;31858;46.008;8.978;2023-07-02T15:19:45;94014.31;;;25.23;100.00
45941;BME280;31858;46.008;8.978;2023-07-02T15:29:47;94011.59;;;25.95;100.00
45941;BME280;31858;46.008;8.978;2023-07-02T15:39:50;94014.16;;;26.36;100.00
45941;BME280;31858;46.008;8.978;2023-07-02T15:49:51;94023.84;;;26.37;100.00
45941;BME280;31858;46.008;8.978;2023-07-02T15:59:55;94028.78;;;26.33;100.00
45941;BME280;31858;46.008;8.978;2023-07-02T16:09:57;94023.09;;;26.37;100.00
45941;BME280;31858;46.008;8.978;2023-07-02T16:20:01;94016.47;;;26.17;100.00
45941;BME280;31858;46.008;8.978;2023-07-02T16:30:03;94028.78;;;26.33;100.00
45941;BME280;31858;46.008;8.978;2023-07-02T16:40:07;94039.59;;;26.22;100.00
45941;BME280;31858;46.008;8.978;2023-07-02T16:50:09;94041.47;;;26.10;100.00
45941;BME280;31858;46.008;8.978;2023-07-02T17:00:13;94032.19;;;25.96;100.00
45941;BME280;31858;46.008;8.978;2023-07-02T17:10:15;94046.91;;;25.79;100.00
45941;BME280;31858;46.008;8.978;2023-07-02T17:20:18;94038.47;;;25.77;100.00
45941;BME280;31858;46.008;8.978;2023-07-02T17:30:20;94033.34;;;25.64;100.00
45941;BME280;31858;46.008;8.978;2023-07-02T17:40:23;94045.50;;;25.63;100.00
45941;BME280;31858;46.008;8.978;2023-07-02T17:50:24;94040.03;;;25.63;100.00
45941;BME280;31858;46.008;8.978;2023-07-02T18:00:27;94042.63;;;25.52;100.00
45941;BME280;31858;46.008;8.978;2023-07-02T18:10:29;94049.41;;;25.36;100.00
45941;BME280;31858;46.008;8.978;2023-07-02T18:20:32;94040.66;;;24.91;100.00
45941;BME280;31858;46.008;8.978;2023-07-02T18:30:34;94039.28;;;24.81;100.00
45941;BME280;31858;46.008;8.978;2023-07-02T18:40:38;94039.53;;;24.63;100.00
45941;BME280;31858;46.008;8.978;2023-07-02T18:50:40;94037.47;;;24.58;100.00
45941;BME280;31858;46.008;8.978;2023-07-02T19:00:43;94036.41;;;24.35;100.00
45941;BME280;31858;46.008;8.978;2023-07-02T19:10:45;94051.88;;;23.70;100.00
45941;BME280;31858;46.008;8.978;2023-07-02T19:20:48;94065.00;;;23.48;100.00
45941;BME280;31858;46.008;8.978;2023-07-02T19:30:50;94077.34;;;23.19;100.00
45941;BME280;31858;46.008;8.978;2023-07-02T19:40:58;94080.78;;;22.96;100.00
45941;BME280;31858;46.008;8.978;2023-07-02T19:51:01;94097.91;;;22.87;100.00
45941;BME280;31858;46.008;8.978;2023-07-02T20:01:08;94115.88;;;22.75;100.00
45941;BME280;31858;46.008;8.978;2023-07-02T20:11:10;94125.88;;;22.69;100.00
45941;BME280;31858;46.008;8.978;2023-07-02T20:21:13;94142.66;;;22.59;100.00
45941;BME280;31858;46.008;8.978;2023-07-02T20:31:14;94146.75;;;22.45;100.00
45941;BME280;31858;46.008;8.978;2023-07-02T20:41:17;94154.47;;;22.37;100.00
45941;BME280;31858;46.008;8.978;2023-07-02T20:51:19;94155.13;;;22.14;100.00
45941;BME280;31858;46.008;8.978;2023-07-02T21:01:22;94167.94;;;22.13;100.00
45941;BME280;31858;46.008;8.978;2023-07-02T21:11:23;94162.50;;;21.95;100.00
45941;BME280;31858;46.008;8.978;2023-07-02T21:21:26;94171.72;;;21.89;100.00
45941;BME280;31858;46.008;8.978;2023-07-02T21:31:28;94179.53;;;21.87;100.00
45941;BME280;31858;46.008;8.978;2023-07-02T21:41:31;94182.56;;;21.70;100.00
45941;BME280;31858;46.008;8.978;2023-07-02T21:51:35;94188.69;;;21.53;100.00
45941;BME280;31858;46.008;8.978;2023-07-02T22:01:38;94196.09;;;21.52;100.00
45941;BME280;31858;46.008;8.978;2023-07-02T22:11:40;94195.63;;;21.54;100.00
45941;BME280;31858;46.008;8.978;2023-07-02T22:21:43;94202.56;;;21.55;100.00
45941;BME280;31858;46.008;8.978;2023-07-02T22:31:45;94194.69;;;21.38;100.00
45941;BME280;31858;46.008;8.978;2023-07-02T22:41:47;94199.47;;;21.25;100.00
45941;BME280;31858;46.008;8.978;2023-07-02T22:51:49;94209.88;;;21.27;100.00
45941;BME280;31858;46.008;8.978;2023-07-02T23:01:53;94202.19;;;21.25;100.00
45941;BME280;31858;46.008;8.978;2023-07-02T23:11:54;94199.28;;;21.20;100.00
45941;BME280;31858;46.008;8.978;2023-07-02T23:21:57;94193.13;;;21.19;100.00
45941;BME280;31858;46.008;8.978;2023-07-02T23:31:59;94179.88;;;21.21;100.00
45941;BME280;31858;46.008;8.978;2023-07-02T23:42:02;94186.38;;;21.24;100.00
45941;BME280;31858;46.008;8.978;2023-07-02T23:52:04;94188.34;;;21.23;100.00
